Data for 03/26/2005

Time Sea-Level Adjusted Pressure Absolute Pressure Temperature Relative Humidity Dew Point   
(mb) (inHg) (mb) (inHg) (C) (F) (%) (C) (F)
00:05 1020 30.12 849 25.07 -2.5 27.6 75 -6.4 20.6
00:10 1020 30.12 849 25.07 -2.6 27.4 75 -6.4 20.5
00:15 1020 30.12 849 25.07 -2.6 27.4 74 -6.5 20.3
00:20 1020 30.12 849 25.07 -2.4 27.6 74 -6.5 20.4
00:25 1020 30.12 849 25.07 -2.4 27.7 74 -6.3 20.6
00:30 1020 30.12 849 25.07 -2.3 27.8 74 -6.4 20.5
00:35 1020 30.12 849 25.07 -2.3 27.9 73 -6.4 20.5
00:40 1020 30.12 849 25.07 -2.4 27.8 74 -6.4 20.5
00:45 1020 30.12 849 25.07 -2.4 27.7 74 -6.4 20.4
00:50 1020 30.12 849 25.07 -2.4 27.6 74 -6.4 20.5
00:55 1020 30.12 849 25.07 -2.5 27.5 75 -6.4 20.5
01:00 1020 30.12 849 25.07 -2.5 27.6 75 -6.3 20.6
01:05 1020 30.12 849 25.07 -2.5 27.6 76 -6.1 21
01:10 1020 30.12 849 25.07 -2.5 27.5 75 -6.3 20.7
01:15 1020 30.12 849 25.07 -2.5 27.5 75 -6.3 20.7
01:20 1020 30.12 849 25.07 -2.5 27.5 75 -6.4 20.5
01:25 1020 30.12 849 25.07 -2.4 27.7 74 -6.4 20.4
01:30 1020 30.12 849 25.07 -2.4 27.6 74 -6.4 20.4
01:35 1020 30.12 849 25.07 -2.4 27.6 71 -6.9 19.5
01:40 1020 30.12 849 25.07 -2.3 27.9 69 -7.2 19
01:45 1020 30.12 849 25.07 -2.2 28.1 69 -7.2 19.1
01:50 1020 30.12 849 25.07 -2.1 28.2 68 -7.2 19
01:55 1020 30.12 849 25.07 -2 28.3 68 -7.2 19
02:00 1020 30.12 849 25.07 -2 28.4 67 -7.3 18.9
02:05 1020 30.12 849 25.07 -1.9 28.5 67 -7.3 18.8
02:10 1020 30.12 849 25.07 -1.9 28.6 66 -7.5 18.4
02:15 1020 30.12 849 25.07 -1.9 28.5 66 -7.4 18.7
02:20 1020 30.12 849 25.07 -2 28.4 65 -7.6 18.3
02:25 1020 30.12 849 25.07 -2 28.4 65 -7.6 18.2
02:30 1020 30.12 849 25.07 -2.1 28.3 66 -7.7 18.2
02:35 1019 30.09 849 25.07 -2 28.3 65 -7.8 18
02:40 1019 30.09 849 25.07 -2.1 28.2 67 -7.4 18.6
02:45 1019 30.09 848 25.04 -2.3 27.9 68 -7.3 18.8
02:50 1019 30.09 848 25.04 -2.5 27.4 69 -7.4 18.7
02:55 1019 30.09 848 25.04 -2.8 27 71 -7.3 18.8
03:00 1019 30.09 848 25.04 -3.1 26.4 73 -7.4 18.7
03:05 1019 30.09 848 25.04 -3.1 26.4 72 -7.5 18.5
03:10 1019 30.09 848 25.04 -3 26.7 72 -7.4 18.8
03:15 1019 30.09 849 25.07 -3.1 26.5 73 -7.3 18.8
03:20 1019 30.09 848 25.04 -3.3 26.1 74 -7.2 19
03:25 1019 30.09 848 25.04 -3.6 25.6 76 -7.3 18.9
03:30 1019 30.09 848 25.04 -3.8 25.1 77 -7.2 19
03:35 1019 30.09 848 25.04 -4.1 24.7 78 -7.4 18.7
03:40 1019 30.09 848 25.04 -4.3 24.3 79 -7.5 18.5
03:45 1019 30.09 848 25.04 -4.5 23.9 80 -7.5 18.4
03:50 1019 30.09 848 25.04 -4.7 23.6 80 -7.6 18.3
03:55 1019 30.09 848 25.04 -4.7 23.5 80 -7.6 18.3
04:00 1019 30.09 848 25.04 -4.8 23.4 80 -7.7 18.1
04:05 1019 30.09 848 25.04 -4.7 23.5 80 -7.7 18.1
04:10 1019 30.09 848 25.04 -4.5 23.9 79 -7.6 18.3
04:15 1019 30.09 848 25.04 -4.7 23.6 80 -7.6 18.2
04:20 1019 30.09 848 25.04 -5.3 22.5 82 -7.8 17.9
04:25 1019 30.09 848 25.04 -5.4 22.2 81 -8.1 17.4
04:30 1019 30.09 848 25.04 -5.1 22.8 79 -8.2 17.3
04:35 1019 30.09 848 25.04 -5 23 79 -8.1 17.4
04:40 1019 30.09 848 25.04 -5.1 22.8 79 -8.2 17.2
04:45 1019 30.09 848 25.04 -5.5 22.2 79 -8.5 16.7
04:50 1019 30.09 848 25.04 -5.6 22 79 -8.7 16.4
04:55 1019 30.09 848 25.04 -5.6 21.9 79 -8.7 16.3
05:00 1019 30.09 848 25.04 -5.6 21.9 78 -8.8 16.2
05:05 1020 30.12 849 25.07 -5.4 22.2 77 -8.9 15.9
05:10 1020 30.12 849 25.07 -5.1 22.8 76 -8.7 16.3
05:15 1020 30.12 849 25.07 -5.2 22.6 76 -8.7 16.3
05:20 1020 30.12 849 25.07 -5.4 22.3 76 -8.9 15.9
05:25 1020 30.12 849 25.07 -5.2 22.7 76 -8.7 16.3
05:30 1019 30.09 849 25.07 -5.1 22.9 77 -8.5 16.6
05:35 1020 30.12 849 25.07 -5.2 22.6 78 -8.5 16.8
05:40 1020 30.12 849 25.07 -5.3 22.4 78 -8.6 16.5
05:45 1020 30.12 849 25.07 -5.4 22.3 78 -8.6 16.6
05:50 1020 30.12 849 25.07 -5.2 22.6 77 -8.6 16.4
05:55 1020 30.12 849 25.07 -5.3 22.5 78 -8.6 16.5
06:00 1020 30.12 849 25.07 -5.5 22.1 78 -8.7 16.3
06:05 1020 30.12 849 25.07 -5.6 21.9 78 -8.9 16
06:10 1020 30.12 849 25.07 -5.9 21.4 80 -8.8 16.1
06:15 1020 30.12 849 25.07 -6.3 20.6 82 -8.9 16
06:20 1020 30.12 849 25.07 -6.3 20.7 81 -9.1 15.6
06:25 1020 30.12 849 25.07 -6.3 20.6 81 -9.1 15.7
06:30 1020 30.12 849 25.07 -6.4 20.4 81 -9.2 15.4
06:35 1020 30.12 849 25.07 -6.1 21.1 78 -9.3 15.3
06:40 1020 30.12 849 25.07 -5.7 21.7 76 -9.2 15.4
06:45 1020 30.12 849 25.07 -5.3 22.4 75 -9.2 15.5
06:50 1020 30.12 849 25.07 -4.6 23.7 72 -8.9 15.9
06:55 1020 30.12 849 25.07 -4.5 23.8 72 -8.9 16
07:00 1020 30.12 849 25.07 -5.1 22.8 75 -8.9 16
07:05 1020 30.12 849 25.07 -5.3 22.5 75 -9.1 15.6
07:10 1020 30.12 849 25.07 -5.3 22.5 74 -9.2 15.4
07:15 1020 30.12 849 25.07 -5 23.1 73 -9.1 15.6
07:20 1020 30.12 849 25.07 -5 23 75 -8.9 16.1
07:25 1020 30.12 849 25.07 -4.8 23.4 72 -9 15.7
07:30 1020 30.12 849 25.07 -4.2 24.4 71 -8.8 16.2
07:35 1020 30.12 849 25.07 -3.8 25.1 70 -8.4 16.8
07:40 1020 30.12 849 25.07 -3.5 25.7 69 -8.4 16.9
07:45 1020 30.12 849 25.07 -3.3 26.1 69 -8.2 17.2
07:50 1020 30.12 849 25.07 -3.1 26.4 70 -7.8 17.9
07:55 1020 30.12 849 25.07 -2.5 27.4 66 -8 17.6
08:00 1020 30.12 849 25.07 -2.4 27.7 65 -8 17.6
08:05 1020 30.12 849 25.07 -1.6 29.1 61 -8.2 17.3
08:10 1020 30.12 849 25.07 -1.5 29.2 63 -7.7 18.1
08:15 1020 30.12 849 25.07 -1.9 28.7 63 -8.1 17.5
08:20 1020 30.12 849 25.07 -1.5 29.3 62 -7.9 17.7
08:25 1020 30.12 849 25.07 -1.2 29.8 62 -7.6 18.3
08:30 1020 30.12 849 25.07 -0.6 30.9 59 -7.6 18.3
08:35 1020 30.12 849 25.07 0.2 32.3 58 -7.2 19
08:40 1020 30.12 849 25.07 0.6 33.1 56 -7.2 19
08:45 1020 30.12 849 25.07 0.9 33.6 56 -7 19.4
08:50 1019 30.09 849 25.07 1.3 34.4 54 -6.9 19.5
08:55 1019 30.09 849 25.07 1.6 34.8 53 -7.1 19.3
09:00 1019 30.09 849 25.07 1.4 34.6 55 -6.7 19.9
09:05 1019 30.09 849 25.07 1.4 34.6 55 -6.6 20.2
09:10 1019 30.09 849 25.07 1.4 34.4 55 -6.8 19.7
09:15 1019 30.09 849 25.07 1.9 35.5 51 -7.2 19.1
09:20 1019 30.09 849 25.07 2.4 36.4 50 -6.8 19.7
09:25 1019 30.09 849 25.07 2.7 36.8 49 -7 19.3
09:30 1019 30.09 849 25.07 3 37.4 48 -7 19.3
09:35 1019 30.09 849 25.07 3 37.3 50 -6.5 20.3
09:40 1019 30.09 849 25.07 3.2 37.7 48 -6.8 19.8
09:45 1019 30.09 848 25.04 3.3 37.9 49 -6.6 20.2
09:50 1019 30.09 848 25.04 3.6 38.4 46 -7 19.3
09:55 1019 30.09 848 25.04 3.6 38.5 46 -7 19.3
10:00 1019 30.09 849 25.07 3.1 37.6 48 -6.9 19.5
10:05 1019 30.09 849 25.07 2.9 37.3 50 -6.6 20.2
10:10 1019 30.09 849 25.07 3.3 37.9 48 -6.6 20
10:15 1019 30.09 849 25.07 3.5 38.3 48 -6.5 20.4
10:20 1019 30.09 849 25.07 3.3 38 50 -6.1 21
10:25 1019 30.09 849 25.07 3.8 38.8 45 -7 19.4
10:30 1019 30.09 849 25.07 4 39.1 47 -6.3 20.6
10:35 1019 30.09 849 25.07 3.4 38.1 48 -6.6 20.1
10:40 1019 30.09 848 25.04 3.9 39 46 -6.8 19.7
10:45 1019 30.09 848 25.04 4.3 39.8 44 -6.9 19.6
10:50 1019 30.09 848 25.04 4.6 40.3 44 -6.5 20.2
10:55 1019 30.09 848 25.04 4.6 40.3 42 -7.3 18.8
11:00 1019 30.09 848 25.04 4.9 40.8 41 -7.4 18.8
11:05 1019 30.09 848 25.04 4.9 40.8 41 -7.2 19.1
11:10 1019 30.09 848 25.04 5 41.1 41 -7.1 19.2
11:15 1019 30.09 848 25.04 4.9 40.9 43 -6.6 20
11:20 1019 30.09 848 25.04 4.8 40.7 42 -6.9 19.5
11:25 1019 30.09 848 25.04 4.8 40.6 43 -6.8 19.7
11:30 1019 30.09 848 25.04 5 40.9 44 -6.4 20.5
11:35 1019 30.09 848 25.04 5.5 41.8 42 -6.4 20.4
11:40 1019 30.09 848 25.04 5.6 42 42 -6.5 20.3
11:45 1019 30.09 848 25.04 5.3 41.6 39 -7.6 18.4
11:50 1019 30.09 848 25.04 5.3 41.5 39 -7.5 18.4
11:55 1019 30.09 848 25.04 6.1 43 38 -7.3 18.8
12:00 1019 30.09 848 25.04 6.2 43.2 37 -7.3 18.8
12:05 1018 30.06 848 25.04 6.6 43.9 34 -8.4 17
12:10 1018 30.06 847 25.01 6.7 44 34 -8.2 17.2
12:15 1018 30.06 847 25.01 6.8 44.2 33 -8.6 16.6
12:20 1018 30.06 847 25.01 7 44.6 33 -8.1 17.5
12:25 1018 30.06 847 25.01 7.3 45.1 33 -7.8 17.9
12:30 1018 30.06 847 25.01 7.4 45.3 29 -9.6 14.7
12:35 1018 30.06 847 25.01 7.3 45.2 30 -9 15.8
12:40 1018 30.06 847 25.01 7.9 46.2 28 -9.7 14.5
12:45 1018 30.06 847 25.01 8.2 46.8 27 -9.5 14.9
12:50 1018 30.06 847 25.01 7.7 45.9 29 -9.3 15.2
12:55 1018 30.06 847 25.01 8.2 46.7 27 -9.6 14.8
13:00 1018 30.06 847 25.01 8.2 46.7 28 -9 15.7
13:05 1018 30.06 847 25.01 8.3 47 30 -8.4 16.8
13:10 1018 30.06 847 25.01 8.3 46.9 28 -9 15.9
13:15 1018 30.06 847 25.01 8.6 47.5 26 -9.7 14.5
13:20 1018 30.06 847 25.01 8.3 47 28 -9.3 15.2
13:25 1017 30.03 847 25.01 8.7 47.6 28 -9 15.8
13:30 1017 30.03 847 25.01 8.8 47.9 26 -9.5 14.9
13:35 1017 30.03 847 25.01 9 48.2 28 -8.7 16.4
13:40 1017 30.03 846 24.98 9.4 48.8 28 -8.4 16.9
13:45 1017 30.03 846 24.98 9.6 49.2 27 -8.4 16.8
13:50 1017 30.03 846 24.98 9.6 49.2 25 -9.7 14.5
13:55 1017 30.03 846 24.98 9.6 49.2 26 -9.2 15.4
14:00 1017 30.03 846 24.98 9.7 49.5 24 -10.1 13.9
14:05 1017 30.03 846 24.98 9.9 49.8 26 -8.8 16.2
14:10 1016 30 846 24.98 9.9 49.8 27 -8.4 16.8
14:15 1016 30 845 24.95 10.1 50.3 25 -9 15.7
14:20 1016 30 845 24.95 10.2 50.4 25 -9.1 15.6
14:25 1016 30 845 24.95 9.8 49.7 24 -9.6 14.8
14:30 1016 30 845 24.95 10 50 25 -9.3 15.3
14:35 1016 30 845 24.95 10.1 50.1 23 -9.9 14.1
14:40 1016 30 845 24.95 10.1 50.2 25 -8.9 15.9
14:45 1016 30 845 24.95 9.3 48.8 26 -9.1 15.7
14:50 1016 30 845 24.95 9.2 48.6 26 -9.5 15
14:55 1016 30 845 24.95 10 50 24 -9.4 15.1
15:00 1016 30 845 24.95 9.9 49.8 27 -8.5 16.7
15:05 1016 30 845 24.95 10.2 50.4 25 -8.8 16.2
15:10 1016 30 845 24.95 10.1 50.2 26 -8.5 16.8
15:15 1016 30 845 24.95 10.3 50.6 26 -8.2 17.3
15:20 1016 30 845 24.95 10.7 51.3 26 -8.2 17.2
15:25 1016 30 845 24.95 10.6 51 26 -8 17.6
15:30 1016 30 845 24.95 9.9 49.9 26 -8.7 16.4
15:35 1016 30 845 24.95 9.3 48.8 26 -9 15.8
15:40 1016 30 845 24.95 9.1 48.5 27 -9 15.8
15:45 1016 30 845 24.95 9.7 49.5 26 -8.7 16.3
15:50 1016 30 845 24.95 10.4 50.7 26 -8.5 16.7
15:55 1016 30 845 24.95 10.8 51.5 24 -8.9 15.9
16:00 1016 30 845 24.95 10.7 51.2 24 -9.3 15.3
16:05 1016 30 845 24.95 10.2 50.3 25 -9.1 15.7
16:10 1016 30 845 24.95 10.1 50.1 26 -8.6 16.5
16:15 1016 30 845 24.95 9.8 49.6 26 -9.1 15.6
16:20 1016 30 845 24.95 9.7 49.5 26 -9.1 15.7
16:25 1016 30 845 24.95 9.6 49.4 26 -9.1 15.7
16:30 1016 30 845 24.95 9.8 49.6 25 -9.4 15.1
16:35 1016 30 845 24.95 9.5 49.1 23 -10.5 13.2
16:40 1016 30 845 24.95 9.4 48.8 24 -10.1 13.9
16:45 1015 29.97 845 24.95 9.4 48.9 26 -9.2 15.4
16:50 1015 29.97 845 24.95 9.1 48.5 25 -9.9 14.1
16:55 1015 29.97 844 24.92 8.9 48.1 28 -8.4 16.9
17:00 1015 29.97 844 24.92 8.9 48 28 -8.8 16.1
17:05 1015 29.97 844 24.92 8.7 47.6 28 -9.1 15.7
17:10 1015 29.97 844 24.92 8.4 47.2 28 -9.1 15.6
17:15 1015 29.97 844 24.92 8.2 46.8 29 -8.8 16.1
17:20 1015 29.97 844 24.92 8.1 46.5 32 -7.5 18.6
17:25 1015 29.97 844 24.92 8.1 46.5 31 -8 17.6
17:30 1015 29.97 844 24.92 8.1 46.6 31 -7.8 17.9
17:35 1015 29.97 844 24.92 8.1 46.5 33 -7.3 18.8
17:40 1015 29.97 844 24.92 8.1 46.6 30 -8.4 16.9
17:45 1015 29.97 844 24.92 8 46.4 31 -8.2 17.3
17:50 1015 29.97 844 24.92 7.8 46.1 33 -7.5 18.5
17:55 1015 29.97 844 24.92 7.8 46 30 -8.9 15.9
18:00 1015 29.97 844 24.92 7.9 46.3 31 -8.2 17.2
18:05 1015 29.97 844 24.92 8.2 46.8 30 -8.1 17.3
18:10 1015 29.97 844 24.92 8.2 46.8 30 -8.5 16.6
18:15 1015 29.97 844 24.92 8.2 46.7 31 -8.1 17.4
18:20 1015 29.97 844 24.92 8.2 46.8 30 -8.3 17.1
18:25 1015 29.97 844 24.92 8.3 46.9 30 -8.3 17
18:30 1015 29.97 844 24.92 8.2 46.7 31 -7.9 17.9
18:35 1015 29.97 844 24.92 8 46.4 32 -7.7 18.1
18:40 1015 29.97 844 24.92 7.8 46.1 33 -7.6 18.3
18:45 1015 29.97 844 24.92 7.8 46 32 -7.8 18
18:50 1015 29.97 844 24.92 7.6 45.8 33 -7.6 18.3
18:55 1015 29.97 844 24.92 7.5 45.5 33 -7.8 18
19:00 1015 29.97 844 24.92 7.4 45.2 34 -7.7 18.2
19:05 1014 29.94 844 24.92 7.3 45.1 34 -7.4 18.6
19:10 1014 29.94 844 24.92 7.1 44.7 36 -7 19.4
19:15 1014 29.94 844 24.92 6.9 44.4 39 -6.2 20.8
19:20 1014 29.94 843 24.89 6.4 43.5 41 -6 21.3
19:25 1014 29.94 843 24.89 6 42.8 42 -5.9 21.4
19:30 1014 29.94 843 24.89 5.9 42.5 44 -5.6 22
19:35 1014 29.94 843 24.89 5.8 42.4 42 -6.1 20.9
19:40 1014 29.94 843 24.89 5.8 42.5 40 -6.6 20.1
19:45 1014 29.94 843 24.89 5.9 42.6 39 -6.9 19.6
19:50 1014 29.94 843 24.89 5.8 42.5 39 -6.9 19.6
19:55 1014 29.94 843 24.89 5.8 42.5 42 -6.2 20.8
20:00 1014 29.94 843 24.89 5.6 42 40 -6.9 19.5
20:05 1014 29.94 843 24.89 5.8 42.4 39 -7 19.4
20:10 1014 29.94 843 24.89 5.9 42.7 39 -7 19.5
20:15 1014 29.94 843 24.89 6 42.8 36 -7.8 17.9
20:20 1014 29.94 844 24.92 6.2 43.2 36 -7.7 18.2
20:25 1014 29.94 844 24.92 6.3 43.3 37 -7.4 18.7
20:30 1015 29.97 844 24.92 6.3 43.3 38 -7.1 19.2
20:35 1015 29.97 844 24.92 6.2 43.2 39 -6.7 19.9
20:40 1015 29.97 844 24.92 6.1 43 39 -6.7 19.9
20:45 1015 29.97 844 24.92 5.9 42.7 40 -6.8 19.8
20:50 1015 29.97 844 24.92 5.6 42.1 43 -5.9 21.4
20:55 1015 29.97 844 24.92 5.3 41.5 43 -6.3 20.7
21:00 1015 29.97 844 24.92 5.2 41.4 44 -6.1 21
21:05 1015 29.97 844 24.92 5.3 41.5 45 -5.8 21.6
21:10 1014 29.94 844 24.92 4.7 40.5 49 -5.2 22.6
21:15 1014 29.94 843 24.89 4.4 39.9 51 -4.9 23.1
21:20 1014 29.94 843 24.89 4.7 40.5 49 -5 23
21:25 1014 29.94 843 24.89 5 40.9 49 -4.8 23.4
21:30 1014 29.94 843 24.89 4.5 40.1 49 -5.4 22.3
21:35 1014 29.94 843 24.89 4.5 40.1 47 -5.7 21.7
21:40 1014 29.94 843 24.89 4.6 40.4 47 -5.8 21.6
21:45 1014 29.94 843 24.89 4.6 40.4 45 -6.3 20.7
21:50 1013 29.91 843 24.89 4.9 40.8 45 -6.1 21.1
21:55 1013 29.91 843 24.89 5 41 45 -5.9 21.4
22:00 1013 29.91 843 24.89 5.2 41.3 45 -5.9 21.3
22:05 1013 29.91 842 24.86 5.6 42.1 44 -5.6 21.9
22:10 1013 29.91 842 24.86 5.7 42.3 45 -5.4 22.4
22:15 1013 29.91 842 24.86 5.7 42.3 45 -5.3 22.4
22:20 1013 29.91 842 24.86 5.7 42.3 46 -5 22.9
22:25 1013 29.91 843 24.89 5.6 42.1 46 -5.1 22.8
22:30 1013 29.91 843 24.89 5.6 42.1 45 -5.3 22.5
22:35 1013 29.91 843 24.89 5.6 42.2 45 -5.3 22.4
22:40 1014 29.94 843 24.89 5.7 42.2 46 -5.2 22.7
22:45 1014 29.94 843 24.89 5.5 41.8 47 -5 23.1
22:50 1014 29.94 843 24.89 5.2 41.3 47 -5.1 22.8
22:55 1014 29.94 843 24.89 5.2 41.4 47 -5.3 22.5
23:00 1014 29.94 843 24.89 5.3 41.6 46 -5.3 22.4
23:05 1014 29.94 843 24.89 5.3 41.5 47 -5.2 22.7
23:10 1014 29.94 843 24.89 5.3 41.5 46 -5.3 22.4
23:15 1013 29.91 843 24.89 5.4 41.7 47 -5.1 22.9
23:20 1013 29.91 843 24.89 5.3 41.6 46 -5.3 22.5
23:25 1013 29.91 843 24.89 5.1 41.2 50 -4.5 23.9
23:30 1013 29.91 843 24.89 4.2 39.5 53 -4.6 23.8
23:35 1013 29.91 843 24.89 4 39.3 52 -4.9 23.3
23:40 1013 29.91 843 24.89 4.2 39.6 53 -4.5 24
23:45 1014 29.94 843 24.89 4.1 39.5 54 -4.4 24.1
23:50 1013 29.91 843 24.89 4.1 39.4 54 -4.4 24
23:55 1013 29.91 843 24.89 4.3 39.8 52 -4.6 23.7
24:00 1013 29.91 843 24.89 4.5 40.1 52 -4.5 23.9